Accueil
METAR-TAF:

METAR-TAF

Aéroports :

Sarrebruck, Allemagne

Aéroport de Sarrebruck

latitude: 49-13N, longitude: 007-07E, altitude: 322 m

Observation

Le bulletin a été fait il y a 13 minutes, à 22:50 UTC
Vent 1 kt de direction variable
Température 12°C
Humidité 82%
Pression 1025 hPa
Visibilité 10 km ou plus

METAR: EDDR 202250Z AUTO VRB01KT 9999 // NCD 12/09 Q1025

Heure: 01:03 (23:03 UTC)

Prévision

Le bulletin a été fait il y a 6 heures et 3 minutes, à 17:00 UTC
Prévision valable du 20 à 18 UTC au 21 à 18 UTC
Vent 8 kt de ouest/nord-ouest
Visibilité 10 km ou plus
pas de nuages en-dessous de 1500 mètres et pas de cumulonimbus.
Evoluant progressivement
du 20 à 18 UTC au 20 à 21 UTC
Vent 3 kt de direction variable
Evoluant progressivement
du 21 à 08 UTC au 21 à 11 UTC
Vent 5 kt de ouest

TAF: EDDR 201700Z 2018/2118 30008KT CAVOK BECMG 2018/2021 VRB03KT BECMG 2108/2111 28005KT

Observations et prévisions météorologiques de plus de 4000 aéroports (messages METAR et TAF).

Les stations disponibles sont représentées par des disques jaunes et rouges sur la carte.

Passer la souris dessus pour voir le nom de la station.

Cliquer dessus pour voir les observations et prévisions météorologiques.

Pour changer de carte: cliquez sur les boutons verts avec une croix noire pour zoomer, sur le bouton vert avec un tiret pour effectuer un zoom arrière, ou sur les flèches vertes pour les cartes adjacentes.


METAR-TAF: